sensor_id;sensor_type;location;lat;lon;timestamp;P1;durP1;ratioP1;P2;durP2;ratioP2
76113;SDS011;64845;53.086;5.834;2023-05-07T00:01:46;17.38;;;12.55;;
76113;SDS011;64845;53.086;5.834;2023-05-07T00:04:12;16.42;;;12.55;;
76113;SDS011;64845;53.086;5.834;2023-05-07T00:06:38;16.95;;;13.27;;
76113;SDS011;64845;53.086;5.834;2023-05-07T00:09:04;20.33;;;13.65;;
76113;SDS011;64845;53.086;5.834;2023-05-07T00:11:30;24.65;;;13.50;;
76113;SDS011;64845;53.086;5.834;2023-05-07T00:13:56;18.58;;;13.00;;
76113;SDS011;64845;53.086;5.834;2023-05-07T00:16:22;17.98;;;13.15;;
76113;SDS011;64845;53.086;5.834;2023-05-07T00:18:47;17.55;;;12.45;;
76113;SDS011;64845;53.086;5.834;2023-05-07T00:21:13;15.88;;;11.85;;
76113;SDS011;64845;53.086;5.834;2023-05-07T00:23:38;19.27;;;12.13;;
76113;SDS011;64845;53.086;5.834;2023-05-07T00:26:04;16.50;;;12.60;;
76113;SDS011;64845;53.086;5.834;2023-05-07T00:28:29;17.40;;;13.02;;
76113;SDS011;64845;53.086;5.834;2023-05-07T00:30:55;16.73;;;12.32;;
76113;SDS011;64845;53.086;5.834;2023-05-07T00:33:21;18.88;;;12.38;;
76113;SDS011;64845;53.086;5.834;2023-05-07T00:35:47;16.33;;;12.05;;
76113;SDS011;64845;53.086;5.834;2023-05-07T00:38:12;16.42;;;12.48;;
76113;SDS011;64845;53.086;5.834;2023-05-07T00:40:38;17.52;;;12.43;;
76113;SDS011;64845;53.086;5.834;2023-05-07T00:43:03;20.13;;;13.07;;
76113;SDS011;64845;53.086;5.834;2023-05-07T00:45:28;16.48;;;12.63;;
76113;SDS011;64845;53.086;5.834;2023-05-07T00:47:55;19.88;;;11.68;;
76113;SDS011;64845;53.086;5.834;2023-05-07T00:50:21;21.90;;;12.48;;
76113;SDS011;64845;53.086;5.834;2023-05-07T00:52:47;17.85;;;11.35;;
76113;SDS011;64845;53.086;5.834;2023-05-07T00:55:12;18.83;;;13.27;;
76113;SDS011;64845;53.086;5.834;2023-05-07T00:57:40;19.30;;;12.38;;
76113;SDS011;64845;53.086;5.834;2023-05-07T01:00:06;16.50;;;12.02;;
76113;SDS011;64845;53.086;5.834;2023-05-07T01:02:34;15.18;;;11.98;;
76113;SDS011;64845;53.086;5.834;2023-05-07T01:05:01;21.00;;;11.93;;
76113;SDS011;64845;53.086;5.834;2023-05-07T01:07:28;18.90;;;12.25;;
76113;SDS011;64845;53.086;5.834;2023-05-07T01:09:54;15.50;;;11.60;;
76113;SDS011;64845;53.086;5.834;2023-05-07T01:12:20;15.15;;;11.32;;
76113;SDS011;64845;53.086;5.834;2023-05-07T01:14:45;17.48;;;11.93;;
76113;SDS011;64845;53.086;5.834;2023-05-07T01:17:11;14.20;;;10.90;;
76113;SDS011;64845;53.086;5.834;2023-05-07T01:19:36;17.83;;;11.00;;
76113;SDS011;64845;53.086;5.834;2023-05-07T01:22:07;17.30;;;11.18;;
76113;SDS011;64845;53.086;5.834;2023-05-07T01:24:34;16.88;;;11.20;;
76113;SDS011;64845;53.086;5.834;2023-05-07T01:27:01;14.77;;;11.02;;
76113;SDS011;64845;53.086;5.834;2023-05-07T01:29:27;16.58;;;11.07;;
76113;SDS011;64845;53.086;5.834;2023-05-07T01:31:53;12.77;;;9.98;;
76113;SDS011;64845;53.086;5.834;2023-05-07T01:34:22;16.65;;;11.15;;
76113;SDS011;64845;53.086;5.834;2023-05-07T01:36:49;15.00;;;10.70;;
76113;SDS011;64845;53.086;5.834;2023-05-07T01:39:16;13.20;;;11.00;;
76113;SDS011;64845;53.086;5.834;2023-05-07T01:41:42;16.58;;;10.13;;
76113;SDS011;64845;53.086;5.834;2023-05-07T01:44:08;17.83;;;12.13;;
76113;SDS011;64845;53.086;5.834;2023-05-07T01:46:36;20.48;;;11.35;;
76113;SDS011;64845;53.086;5.834;2023-05-07T01:49:01;16.88;;;11.70;;
76113;SDS011;64845;53.086;5.834;2023-05-07T01:51:27;16.92;;;11.70;;
76113;SDS011;64845;53.086;5.834;2023-05-07T01:53:52;16.48;;;11.70;;
76113;SDS011;64845;53.086;5.834;2023-05-07T01:56:18;17.60;;;12.13;;
76113;SDS011;64845;53.086;5.834;2023-05-07T01:58:45;14.90;;;10.98;;
76113;SDS011;64845;53.086;5.834;2023-05-07T02:01:12;14.90;;;10.95;;
76113;SDS011;64845;53.086;5.834;2023-05-07T02:03:38;17.02;;;12.38;;
76113;SDS011;64845;53.086;5.834;2023-05-07T02:06:03;19.15;;;12.02;;
76113;SDS011;64845;53.086;5.834;2023-05-07T02:08:29;18.00;;;13.05;;
76113;SDS011;64845;53.086;5.834;2023-05-07T02:10:55;18.73;;;13.55;;
76113;SDS011;64845;53.086;5.834;2023-05-07T02:13:20;19.63;;;12.88;;
76113;SDS011;64845;53.086;5.834;2023-05-07T02:15:47;21.05;;;14.18;;
76113;SDS011;64845;53.086;5.834;2023-05-07T02:18:15;16.50;;;12.45;;
76113;SDS011;64845;53.086;5.834;2023-05-07T02:20:41;17.60;;;13.50;;
76113;SDS011;64845;53.086;5.834;2023-05-07T02:23:06;30.05;;;15.43;;
76113;SDS011;64845;53.086;5.834;2023-05-07T02:25:32;19.20;;;12.57;;
76113;SDS011;64845;53.086;5.834;2023-05-07T02:27:57;23.67;;;14.35;;
76113;SDS011;64845;53.086;5.834;2023-05-07T02:30:23;20.25;;;14.18;;
76113;SDS011;64845;53.086;5.834;2023-05-07T02:32:50;18.05;;;14.82;;
76113;SDS011;64845;53.086;5.834;2023-05-07T02:35:15;22.27;;;14.77;;
76113;SDS011;64845;53.086;5.834;2023-05-07T02:37:41;20.55;;;15.25;;
76113;SDS011;64845;53.086;5.834;2023-05-07T02:40:06;23.52;;;16.38;;
76113;SDS011;64845;53.086;5.834;2023-05-07T02:42:32;23.75;;;15.75;;
76113;SDS011;64845;53.086;5.834;2023-05-07T02:44:58;22.55;;;15.70;;
76113;SDS011;64845;53.086;5.834;2023-05-07T02:47:23;24.20;;;16.77;;
76113;SDS011;64845;53.086;5.834;2023-05-07T02:49:48;25.48;;;16.60;;
76113;SDS011;64845;53.086;5.834;2023-05-07T02:52:14;24.95;;;16.13;;
76113;SDS011;64845;53.086;5.834;2023-05-07T02:54:39;24.25;;;16.70;;
76113;SDS011;64845;53.086;5.834;2023-05-07T02:57:05;22.98;;;16.48;;
76113;SDS011;64845;53.086;5.834;2023-05-07T02:59:30;19.08;;;15.95;;
76113;SDS011;64845;53.086;5.834;2023-05-07T03:01:55;23.17;;;15.57;;
76113;SDS011;64845;53.086;5.834;2023-05-07T03:04:21;29.80;;;16.52;;
76113;SDS011;64845;53.086;5.834;2023-05-07T03:06:46;25.08;;;17.30;;
76113;SDS011;64845;53.086;5.834;2023-05-07T03:09:11;24.02;;;16.52;;
76113;SDS011;64845;53.086;5.834;2023-05-07T03:11:37;24.42;;;17.15;;
76113;SDS011;64845;53.086;5.834;2023-05-07T03:14:02;22.40;;;17.42;;
76113;SDS011;64845;53.086;5.834;2023-05-07T03:16:28;23.58;;;17.25;;
76113;SDS011;64845;53.086;5.834;2023-05-07T03:18:53;24.50;;;17.98;;
76113;SDS011;64845;53.086;5.834;2023-05-07T03:21:19;22.63;;;16.88;;
76113;SDS011;64845;53.086;5.834;2023-05-07T03:23:44;27.85;;;17.58;;
76113;SDS011;64845;53.086;5.834;2023-05-07T03:26:10;25.92;;;18.45;;
76113;SDS011;64845;53.086;5.834;2023-05-07T03:28:36;30.52;;;18.67;;
76113;SDS011;64845;53.086;5.834;2023-05-07T03:31:02;25.25;;;17.90;;
76113;SDS011;64845;53.086;5.834;2023-05-07T03:33:27;26.63;;;18.10;;
76113;SDS011;64845;53.086;5.834;2023-05-07T03:35:53;27.55;;;18.23;;
76113;SDS011;64845;53.086;5.834;2023-05-07T03:38:18;23.73;;;17.48;;
76113;SDS011;64845;53.086;5.834;2023-05-07T03:40:43;22.95;;;17.33;;
76113;SDS011;64845;53.086;5.834;2023-05-07T03:43:09;27.38;;;17.25;;
76113;SDS011;64845;53.086;5.834;2023-05-07T03:45:34;24.05;;;17.48;;
76113;SDS011;64845;53.086;5.834;2023-05-07T03:48:00;24.77;;;18.45;;
76113;SDS011;64845;53.086;5.834;2023-05-07T03:50:25;25.17;;;17.83;;
76113;SDS011;64845;53.086;5.834;2023-05-07T03:52:50;28.38;;;18.85;;
76113;SDS011;64845;53.086;5.834;2023-05-07T03:55:16;22.88;;;18.63;;
76113;SDS011;64845;53.086;5.834;2023-05-07T03:57:41;27.08;;;18.50;;
76113;SDS011;64845;53.086;5.834;2023-05-07T04:00:07;27.73;;;17.83;;
76113;SDS011;64845;53.086;5.834;2023-05-07T04:02:33;25.40;;;18.05;;
76113;SDS011;64845;53.086;5.834;2023-05-07T04:04:58;28.90;;;19.55;;
76113;SDS011;64845;53.086;5.834;2023-05-07T04:07:24;28.77;;;18.20;;
76113;SDS011;64845;53.086;5.834;2023-05-07T04:09:49;35.15;;;19.38;;
76113;SDS011;64845;53.086;5.834;2023-05-07T04:12:15;32.20;;;20.98;;
76113;SDS011;64845;53.086;5.834;2023-05-07T04:14:40;31.52;;;19.52;;
76113;SDS011;64845;53.086;5.834;2023-05-07T04:17:05;29.40;;;19.55;;
76113;SDS011;64845;53.086;5.834;2023-05-07T04:19:33;27.05;;;19.40;;
76113;SDS011;64845;53.086;5.834;2023-05-07T04:21:58;29.50;;;20.00;;
76113;SDS011;64845;53.086;5.834;2023-05-07T04:24:24;31.52;;;20.83;;
76113;SDS011;64845;53.086;5.834;2023-05-07T04:26:49;27.52;;;20.77;;
76113;SDS011;64845;53.086;5.834;2023-05-07T04:29:16;29.25;;;20.20;;
76113;SDS011;64845;53.086;5.834;2023-05-07T04:31:41;35.13;;;22.58;;
76113;SDS011;64845;53.086;5.834;2023-05-07T04:34:09;31.67;;;22.20;;
76113;SDS011;64845;53.086;5.834;2023-05-07T04:36:36;35.88;;;22.95;;
76113;SDS011;64845;53.086;5.834;2023-05-07T04:39:03;33.13;;;22.27;;
76113;SDS011;64845;53.086;5.834;2023-05-07T04:41:29;29.58;;;20.70;;
76113;SDS011;64845;53.086;5.834;2023-05-07T04:43:54;36.45;;;23.05;;
76113;SDS011;64845;53.086;5.834;2023-05-07T04:46:20;34.72;;;22.48;;
76113;SDS011;64845;53.086;5.834;2023-05-07T04:48:45;32.90;;;22.70;;
76113;SDS011;64845;53.086;5.834;2023-05-07T04:51:11;35.50;;;22.08;;
76113;SDS011;64845;53.086;5.834;2023-05-07T04:53:37;31.58;;;22.02;;
76113;SDS011;64845;53.086;5.834;2023-05-07T04:56:02;34.38;;;23.90;;
76113;SDS011;64845;53.086;5.834;2023-05-07T04:58:28;31.48;;;21.70;;
76113;SDS011;64845;53.086;5.834;2023-05-07T05:00:56;33.38;;;21.15;;
76113;SDS011;64845;53.086;5.834;2023-05-07T05:03:22;37.83;;;23.60;;
76113;SDS011;64845;53.086;5.834;2023-05-07T05:05:49;35.70;;;24.08;;
76113;SDS011;64845;53.086;5.834;2023-05-07T05:08:14;37.20;;;22.50;;
76113;SDS011;64845;53.086;5.834;2023-05-07T05:10:40;36.08;;;23.92;;
76113;SDS011;64845;53.086;5.834;2023-05-07T05:13:06;39.67;;;24.73;;
76113;SDS011;64845;53.086;5.834;2023-05-07T05:15:33;36.13;;;24.55;;
76113;SDS011;64845;53.086;5.834;2023-05-07T05:17:58;37.42;;;24.98;;
76113;SDS011;64845;53.086;5.834;2023-05-07T05:20:23;38.15;;;24.75;;
76113;SDS011;64845;53.086;5.834;2023-05-07T05:22:49;36.95;;;24.92;;
76113;SDS011;64845;53.086;5.834;2023-05-07T05:25:14;37.63;;;25.13;;
76113;SDS011;64845;53.086;5.834;2023-05-07T05:27:40;39.13;;;25.38;;
76113;SDS011;64845;53.086;5.834;2023-05-07T05:30:05;39.33;;;25.27;;
76113;SDS011;64845;53.086;5.834;2023-05-07T05:32:31;43.25;;;25.98;;
76113;SDS011;64845;53.086;5.834;2023-05-07T05:34:57;43.25;;;26.08;;
76113;SDS011;64845;53.086;5.834;2023-05-07T05:37:22;37.60;;;25.13;;
76113;SDS011;64845;53.086;5.834;2023-05-07T05:39:48;40.85;;;27.00;;
76113;SDS011;64845;53.086;5.834;2023-05-07T05:42:13;41.67;;;25.95;;
76113;SDS011;64845;53.086;5.834;2023-05-07T05:44:38;39.65;;;26.25;;
76113;SDS011;64845;53.086;5.834;2023-05-07T05:47:04;39.53;;;26.45;;
76113;SDS011;64845;53.086;5.834;2023-05-07T05:49:29;39.13;;;26.10;;
76113;SDS011;64845;53.086;5.834;2023-05-07T05:51:55;45.00;;;26.52;;
76113;SDS011;64845;53.086;5.834;2023-05-07T05:54:21;41.20;;;25.90;;
76113;SDS011;64845;53.086;5.834;2023-05-07T05:56:46;43.08;;;25.98;;
76113;SDS011;64845;53.086;5.834;2023-05-07T05:59:11;43.45;;;27.63;;
76113;SDS011;64845;53.086;5.834;2023-05-07T06:01:38;41.63;;;25.95;;
76113;SDS011;64845;53.086;5.834;2023-05-07T06:04:04;38.05;;;26.20;;
76113;SDS011;64845;53.086;5.834;2023-05-07T06:06:29;39.17;;;26.65;;
76113;SDS011;64845;53.086;5.834;2023-05-07T06:09:02;35.25;;;24.58;;
76113;SDS011;64845;53.086;5.834;2023-05-07T06:11:27;38.20;;;26.05;;
76113;SDS011;64845;53.086;5.834;2023-05-07T06:13:53;39.88;;;24.45;;
76113;SDS011;64845;53.086;5.834;2023-05-07T06:16:18;37.15;;;24.70;;
76113;SDS011;64845;53.086;5.834;2023-05-07T06:18:43;39.92;;;25.45;;
76113;SDS011;64845;53.086;5.834;2023-05-07T06:21:11;40.03;;;24.65;;
76113;SDS011;64845;53.086;5.834;2023-05-07T06:23:43;35.40;;;24.55;;
76113;SDS011;64845;53.086;5.834;2023-05-07T06:26:08;40.20;;;25.35;;
76113;SDS011;64845;53.086;5.834;2023-05-07T06:28:33;38.55;;;24.30;;
76113;SDS011;64845;53.086;5.834;2023-05-07T06:33:57;37.97;;;25.10;;
76113;SDS011;64845;53.086;5.834;2023-05-07T06:36:22;35.80;;;24.15;;
76113;SDS011;64845;53.086;5.834;2023-05-07T06:38:48;36.47;;;24.80;;
76113;SDS011;64845;53.086;5.834;2023-05-07T06:41:13;30.77;;;22.90;;
76113;SDS011;64845;53.086;5.834;2023-05-07T06:43:38;33.22;;;22.38;;
76113;SDS011;64845;53.086;5.834;2023-05-07T06:46:04;32.90;;;22.75;;
76113;SDS011;64845;53.086;5.834;2023-05-07T06:48:30;30.10;;;21.70;;
76113;SDS011;64845;53.086;5.834;2023-05-07T06:50:55;32.15;;;22.33;;
76113;SDS011;64845;53.086;5.834;2023-05-07T06:53:22;34.20;;;22.98;;
76113;SDS011;64845;53.086;5.834;2023-05-07T06:55:48;31.38;;;22.77;;
76113;SDS011;64845;53.086;5.834;2023-05-07T06:58:13;27.85;;;21.83;;
76113;SDS011;64845;53.086;5.834;2023-05-07T07:00:39;30.33;;;21.92;;
76113;SDS011;64845;53.086;5.834;2023-05-07T07:03:05;32.38;;;22.45;;
76113;SDS011;64845;53.086;5.834;2023-05-07T07:05:31;32.03;;;21.48;;
76113;SDS011;64845;53.086;5.834;2023-05-07T07:07:56;30.67;;;21.10;;
76113;SDS011;64845;53.086;5.834;2023-05-07T07:10:22;32.13;;;21.98;;
76113;SDS011;64845;53.086;5.834;2023-05-07T07:12:48;30.92;;;21.33;;
76113;SDS011;64845;53.086;5.834;2023-05-07T07:15:14;31.55;;;21.80;;
76113;SDS011;64845;53.086;5.834;2023-05-07T07:17:40;30.50;;;22.15;;
76113;SDS011;64845;53.086;5.834;2023-05-07T07:20:05;30.95;;;21.38;;
76113;SDS011;64845;53.086;5.834;2023-05-07T07:22:31;29.02;;;20.05;;
76113;SDS011;64845;53.086;5.834;2023-05-07T07:24:56;29.73;;;21.40;;
76113;SDS011;64845;53.086;5.834;2023-05-07T07:27:22;31.70;;;22.10;;
76113;SDS011;64845;53.086;5.834;2023-05-07T07:29:47;27.60;;;19.85;;
76113;SDS011;64845;53.086;5.834;2023-05-07T07:32:12;31.10;;;20.58;;
76113;SDS011;64845;53.086;5.834;2023-05-07T07:34:38;27.00;;;19.95;;
76113;SDS011;64845;53.086;5.834;2023-05-07T07:37:03;27.67;;;20.45;;
76113;SDS011;64845;53.086;5.834;2023-05-07T07:39:33;31.02;;;21.75;;
76113;SDS011;64845;53.086;5.834;2023-05-07T07:41:59;27.40;;;19.52;;
76113;SDS011;64845;53.086;5.834;2023-05-07T07:44:25;27.77;;;20.25;;
76113;SDS011;64845;53.086;5.834;2023-05-07T07:46:50;27.38;;;20.65;;
76113;SDS011;64845;53.086;5.834;2023-05-07T07:49:16;28.98;;;20.40;;
76113;SDS011;64845;53.086;5.834;2023-05-07T07:51:41;27.90;;;20.08;;
76113;SDS011;64845;53.086;5.834;2023-05-07T07:54:07;24.60;;;18.00;;
76113;SDS011;64845;53.086;5.834;2023-05-07T07:56:33;31.92;;;20.45;;
76113;SDS011;64845;53.086;5.834;2023-05-07T07:58:59;29.15;;;19.75;;
76113;SDS011;64845;53.086;5.834;2023-05-07T08:01:24;28.63;;;20.23;;
76113;SDS011;64845;53.086;5.834;2023-05-07T08:03:51;28.67;;;19.52;;
76113;SDS011;64845;53.086;5.834;2023-05-07T08:06:16;27.27;;;19.27;;
76113;SDS011;64845;53.086;5.834;2023-05-07T08:08:41;26.33;;;19.30;;
76113;SDS011;64845;53.086;5.834;2023-05-07T08:11:07;24.27;;;18.55;;
76113;SDS011;64845;53.086;5.834;2023-05-07T08:13:32;28.48;;;18.95;;
76113;SDS011;64845;53.086;5.834;2023-05-07T08:15:58;26.55;;;19.65;;
76113;SDS011;64845;53.086;5.834;2023-05-07T08:18:23;25.48;;;18.70;;
76113;SDS011;64845;53.086;5.834;2023-05-07T08:20:50;29.35;;;19.45;;
76113;SDS011;64845;53.086;5.834;2023-05-07T08:23:15;29.70;;;21.38;;
76113;SDS011;64845;53.086;5.834;2023-05-07T08:25:41;30.77;;;19.77;;
76113;SDS011;64845;53.086;5.834;2023-05-07T08:28:07;30.40;;;20.30;;
76113;SDS011;64845;53.086;5.834;2023-05-07T08:30:33;24.80;;;18.73;;
76113;SDS011;64845;53.086;5.834;2023-05-07T08:32:58;26.48;;;19.10;;
76113;SDS011;64845;53.086;5.834;2023-05-07T08:35:25;28.85;;;19.17;;
76113;SDS011;64845;53.086;5.834;2023-05-07T08:37:50;29.52;;;19.20;;
76113;SDS011;64845;53.086;5.834;2023-05-07T08:40:16;27.83;;;19.55;;
76113;SDS011;64845;53.086;5.834;2023-05-07T08:42:41;24.35;;;19.10;;
76113;SDS011;64845;53.086;5.834;2023-05-07T08:45:09;25.85;;;19.10;;
76113;SDS011;64845;53.086;5.834;2023-05-07T08:47:46;23.25;;;18.48;;
76113;SDS011;64845;53.086;5.834;2023-05-07T08:50:15;24.30;;;18.77;;
76113;SDS011;64845;53.086;5.834;2023-05-07T08:52:41;27.98;;;18.45;;
76113;SDS011;64845;53.086;5.834;2023-05-07T08:55:07;35.80;;;20.40;;
76113;SDS011;64845;53.086;5.834;2023-05-07T08:57:33;26.00;;;19.73;;
76113;SDS011;64845;53.086;5.834;2023-05-07T08:59:59;24.13;;;18.55;;
76113;SDS011;64845;53.086;5.834;2023-05-07T09:02:24;25.80;;;18.75;;
76113;SDS011;64845;53.086;5.834;2023-05-07T09:04:50;27.77;;;19.58;;
76113;SDS011;64845;53.086;5.834;2023-05-07T09:07:16;28.13;;;18.67;;
76113;SDS011;64845;53.086;5.834;2023-05-07T09:09:41;26.52;;;18.67;;
76113;SDS011;64845;53.086;5.834;2023-05-07T09:12:09;25.23;;;18.02;;
76113;SDS011;64845;53.086;5.834;2023-05-07T09:14:34;24.23;;;18.17;;
76113;SDS011;64845;53.086;5.834;2023-05-07T09:17:00;27.30;;;18.83;;
76113;SDS011;64845;53.086;5.834;2023-05-07T09:19:26;26.90;;;18.95;;
76113;SDS011;64845;53.086;5.834;2023-05-07T09:22:01;26.58;;;17.00;;
76113;SDS011;64845;53.086;5.834;2023-05-07T09:24:28;20.95;;;17.15;;
76113;SDS011;64845;53.086;5.834;2023-05-07T09:26:58;24.95;;;17.88;;
76113;SDS011;64845;53.086;5.834;2023-05-07T09:29:24;23.02;;;18.00;;
76113;SDS011;64845;53.086;5.834;2023-05-07T09:31:50;21.00;;;16.75;;
76113;SDS011;64845;53.086;5.834;2023-05-07T09:34:15;21.08;;;17.45;;
76113;SDS011;64845;53.086;5.834;2023-05-07T09:36:41;23.75;;;18.67;;
76113;SDS011;64845;53.086;5.834;2023-05-07T09:39:07;25.08;;;17.85;;
76113;SDS011;64845;53.086;5.834;2023-05-07T09:41:32;24.23;;;18.00;;
76113;SDS011;64845;53.086;5.834;2023-05-07T09:43:58;21.95;;;17.85;;
76113;SDS011;64845;53.086;5.834;2023-05-07T09:46:25;21.98;;;17.02;;
76113;SDS011;64845;53.086;5.834;2023-05-07T09:48:56;22.80;;;18.30;;
76113;SDS011;64845;53.086;5.834;2023-05-07T09:51:29;25.23;;;19.20;;
76113;SDS011;64845;53.086;5.834;2023-05-07T09:54:01;25.67;;;18.30;;
76113;SDS011;64845;53.086;5.834;2023-05-07T09:56:29;25.77;;;19.00;;
76113;SDS011;64845;53.086;5.834;2023-05-07T09:58:56;24.50;;;18.10;;
76113;SDS011;64845;53.086;5.834;2023-05-07T10:01:24;29.63;;;19.42;;
76113;SDS011;64845;53.086;5.834;2023-05-07T10:03:50;30.27;;;19.40;;
76113;SDS011;64845;53.086;5.834;2023-05-07T10:06:17;22.80;;;18.02;;
76113;SDS011;64845;53.086;5.834;2023-05-07T10:08:44;24.02;;;18.77;;
76113;SDS011;64845;53.086;5.834;2023-05-07T10:11:10;25.75;;;18.52;;
76113;SDS011;64845;53.086;5.834;2023-05-07T10:13:36;27.90;;;19.25;;
76113;SDS011;64845;53.086;5.834;2023-05-07T10:16:03;26.80;;;18.88;;
76113;SDS011;64845;53.086;5.834;2023-05-07T10:18:33;25.90;;;18.48;;
76113;SDS011;64845;53.086;5.834;2023-05-07T10:21:02;26.92;;;18.77;;
76113;SDS011;64845;53.086;5.834;2023-05-07T10:23:28;25.60;;;18.40;;
76113;SDS011;64845;53.086;5.834;2023-05-07T10:25:56;25.85;;;19.15;;
76113;SDS011;64845;53.086;5.834;2023-05-07T10:28:23;23.00;;;18.42;;
76113;SDS011;64845;53.086;5.834;2023-05-07T10:33:21;25.33;;;19.27;;
76113;SDS011;64845;53.086;5.834;2023-05-07T10:35:51;24.70;;;18.55;;
76113;SDS011;64845;53.086;5.834;2023-05-07T10:38:20;27.07;;;19.13;;
76113;SDS011;64845;53.086;5.834;2023-05-07T10:40:46;23.60;;;18.27;;
76113;SDS011;64845;53.086;5.834;2023-05-07T10:43:11;23.30;;;18.85;;
76113;SDS011;64845;53.086;5.834;2023-05-07T10:45:36;24.55;;;19.08;;
76113;SDS011;64845;53.086;5.834;2023-05-07T10:48:09;27.63;;;19.17;;
76113;SDS011;64845;53.086;5.834;2023-05-07T10:50:39;24.13;;;18.83;;
76113;SDS011;64845;53.086;5.834;2023-05-07T10:55:44;25.42;;;18.88;;
76113;SDS011;64845;53.086;5.834;2023-05-07T11:00:56;25.27;;;19.48;;
76113;SDS011;64845;53.086;5.834;2023-05-07T11:03:23;25.27;;;16.73;;
76113;SDS011;64845;53.086;5.834;2023-05-07T11:05:55;22.58;;;18.65;;
76113;SDS011;64845;53.086;5.834;2023-05-07T11:11:46;21.42;;;16.92;;
76113;SDS011;64845;53.086;5.834;2023-05-07T11:17:05;23.77;;;18.70;;
76113;SDS011;64845;53.086;5.834;2023-05-07T11:25:01;24.27;;;17.23;;
76113;SDS011;64845;53.086;5.834;2023-05-07T11:27:28;24.23;;;18.42;;
76113;SDS011;64845;53.086;5.834;2023-05-07T11:29:54;25.02;;;18.67;;
76113;SDS011;64845;53.086;5.834;2023-05-07T11:32:22;23.63;;;17.23;;
76113;SDS011;64845;53.086;5.834;2023-05-07T11:34:51;23.83;;;18.02;;
76113;SDS011;64845;53.086;5.834;2023-05-07T11:37:17;24.15;;;18.00;;
76113;SDS011;64845;53.086;5.834;2023-05-07T11:39:43;21.90;;;17.95;;
76113;SDS011;64845;53.086;5.834;2023-05-07T11:42:25;21.52;;;17.20;;
76113;SDS011;64845;53.086;5.834;2023-05-07T11:44:54;23.08;;;18.42;;
76113;SDS011;64845;53.086;5.834;2023-05-07T11:47:20;21.38;;;15.73;;
76113;SDS011;64845;53.086;5.834;2023-05-07T11:49:49;21.25;;;16.92;;
76113;SDS011;64845;53.086;5.834;2023-05-07T11:52:19;22.00;;;16.67;;
76113;SDS011;64845;53.086;5.834;2023-05-07T11:54:49;19.38;;;15.75;;
76113;SDS011;64845;53.086;5.834;2023-05-07T11:57:22;22.00;;;16.92;;
76113;SDS011;64845;53.086;5.834;2023-05-07T11:59:55;21.33;;;15.95;;
76113;SDS011;64845;53.086;5.834;2023-05-07T12:02:25;21.70;;;17.30;;
76113;SDS011;64845;53.086;5.834;2023-05-07T12:04:51;21.75;;;17.50;;
76113;SDS011;64845;53.086;5.834;2023-05-07T12:07:17;21.50;;;16.52;;
76113;SDS011;64845;53.086;5.834;2023-05-07T12:09:45;21.77;;;16.65;;
76113;SDS011;64845;53.086;5.834;2023-05-07T12:12:12;21.85;;;15.95;;
76113;SDS011;64845;53.086;5.834;2023-05-07T12:14:40;21.20;;;16.75;;
76113;SDS011;64845;53.086;5.834;2023-05-07T12:17:07;22.13;;;16.58;;
76113;SDS011;64845;53.086;5.834;2023-05-07T12:19:34;21.58;;;17.13;;
76113;SDS011;64845;53.086;5.834;2023-05-07T12:22:01;21.17;;;16.38;;
76113;SDS011;64845;53.086;5.834;2023-05-07T12:24:27;22.23;;;16.85;;
76113;SDS011;64845;53.086;5.834;2023-05-07T12:26:53;18.58;;;14.85;;
76113;SDS011;64845;53.086;5.834;2023-05-07T12:29:21;21.13;;;14.60;;
76113;SDS011;64845;53.086;5.834;2023-05-07T12:31:47;21.08;;;16.02;;
76113;SDS011;64845;53.086;5.834;2023-05-07T12:34:14;18.67;;;15.48;;
76113;SDS011;64845;53.086;5.834;2023-05-07T12:36:40;20.48;;;15.93;;
76113;SDS011;64845;53.086;5.834;2023-05-07T12:39:06;21.33;;;15.80;;
76113;SDS011;64845;53.086;5.834;2023-05-07T12:44:22;19.42;;;15.20;;
76113;SDS011;64845;53.086;5.834;2023-05-07T12:46:49;19.20;;;14.70;;
76113;SDS011;64845;53.086;5.834;2023-05-07T12:49:14;22.70;;;15.07;;
76113;SDS011;64845;53.086;5.834;2023-05-07T12:51:40;21.15;;;14.07;;
76113;SDS011;64845;53.086;5.834;2023-05-07T12:54:05;17.33;;;14.18;;
76113;SDS011;64845;53.086;5.834;2023-05-07T12:56:31;16.90;;;13.25;;
76113;SDS011;64845;53.086;5.834;2023-05-07T12:58:59;17.70;;;14.25;;
76113;SDS011;64845;53.086;5.834;2023-05-07T13:01:28;17.35;;;13.65;;
76113;SDS011;64845;53.086;5.834;2023-05-07T13:03:56;16.33;;;13.70;;
76113;SDS011;64845;53.086;5.834;2023-05-07T13:06:26;14.77;;;13.20;;
76113;SDS011;64845;53.086;5.834;2023-05-07T13:08:51;16.52;;;13.48;;
76113;SDS011;64845;53.086;5.834;2023-05-07T13:11:17;16.02;;;12.70;;
76113;SDS011;64845;53.086;5.834;2023-05-07T13:13:42;17.88;;;13.57;;
76113;SDS011;64845;53.086;5.834;2023-05-07T13:16:09;17.27;;;13.50;;
76113;SDS011;64845;53.086;5.834;2023-05-07T13:18:35;18.45;;;13.43;;
76113;SDS011;64845;53.086;5.834;2023-05-07T13:21:03;15.02;;;12.15;;
76113;SDS011;64845;53.086;5.834;2023-05-07T13:23:28;16.10;;;12.10;;
76113;SDS011;64845;53.086;5.834;2023-05-07T13:25:54;14.05;;;11.80;;
76113;SDS011;64845;53.086;5.834;2023-05-07T13:28:20;20.05;;;11.52;;
76113;SDS011;64845;53.086;5.834;2023-05-07T13:30:46;16.77;;;12.07;;
76113;SDS011;64845;53.086;5.834;2023-05-07T13:33:11;15.27;;;11.38;;
76113;SDS011;64845;53.086;5.834;2023-05-07T13:35:37;14.38;;;11.63;;
76113;SDS011;64845;53.086;5.834;2023-05-07T13:38:03;15.85;;;11.07;;
76113;SDS011;64845;53.086;5.834;2023-05-07T13:40:29;14.57;;;10.73;;
76113;SDS011;64845;53.086;5.834;2023-05-07T13:42:56;13.40;;;11.13;;
76113;SDS011;64845;53.086;5.834;2023-05-07T13:45:23;15.10;;;10.73;;
76113;SDS011;64845;53.086;5.834;2023-05-07T13:47:50;14.85;;;10.90;;
76113;SDS011;64845;53.086;5.834;2023-05-07T13:50:16;14.10;;;11.02;;
76113;SDS011;64845;53.086;5.834;2023-05-07T13:52:42;14.82;;;10.60;;
76113;SDS011;64845;53.086;5.834;2023-05-07T13:55:15;14.55;;;11.23;;
76113;SDS011;64845;53.086;5.834;2023-05-07T13:57:44;13.65;;;11.57;;
76113;SDS011;64845;53.086;5.834;2023-05-07T14:00:11;16.73;;;11.55;;
76113;SDS011;64845;53.086;5.834;2023-05-07T14:02:37;17.77;;;12.15;;
76113;SDS011;64845;53.086;5.834;2023-05-07T14:05:02;13.15;;;10.50;;
76113;SDS011;64845;53.086;5.834;2023-05-07T14:07:28;16.00;;;10.75;;
76113;SDS011;64845;53.086;5.834;2023-05-07T14:09:54;12.68;;;10.15;;
76113;SDS011;64845;53.086;5.834;2023-05-07T14:12:20;13.57;;;10.65;;
76113;SDS011;64845;53.086;5.834;2023-05-07T14:14:45;14.30;;;9.52;;
76113;SDS011;64845;53.086;5.834;2023-05-07T14:17:11;13.18;;;9.48;;
76113;SDS011;64845;53.086;5.834;2023-05-07T14:19:37;13.15;;;9.50;;
76113;SDS011;64845;53.086;5.834;2023-05-07T14:22:02;11.43;;;9.52;;
76113;SDS011;64845;53.086;5.834;2023-05-07T14:24:28;13.52;;;10.50;;
76113;SDS011;64845;53.086;5.834;2023-05-07T14:26:53;14.95;;;10.45;;
76113;SDS011;64845;53.086;5.834;2023-05-07T14:29:19;12.70;;;10.07;;
76113;SDS011;64845;53.086;5.834;2023-05-07T14:31:44;15.50;;;11.88;;
76113;SDS011;64845;53.086;5.834;2023-05-07T14:34:10;13.00;;;10.05;;
76113;SDS011;64845;53.086;5.834;2023-05-07T14:36:36;14.57;;;10.57;;
76113;SDS011;64845;53.086;5.834;2023-05-07T14:39:01;16.98;;;11.20;;
76113;SDS011;64845;53.086;5.834;2023-05-07T14:41:27;12.13;;;10.82;;